Time;durP1;ratioP1;P1;durP2;ratioP2;P2;SDS_P1;SDS_P2;PMS_P1;PMS_P2;Temp;Humidity;BMP_temperature;BMP_pressure;BME280_temperature;BME280_humidity;BME280_pressure;Samples;Min_cycle;Max_cycle;Signal;HPM_P1;HPM_P2
2024/04/11 00:00:04;;;;;;;;;;;;;;;10.72;100.00;101407.55;106326;1259;62108;-82
2024/04/11 00:02:39;;;;;;;;;;;;;;;10.70;100.00;101407.64;106298;1254;62178;-85
2024/04/11 00:05:06;;;;;;;;;;;;;;;10.70;100.00;101411.14;106146;1259;75522;-85
2024/04/11 00:07:34;;;;;;;;;;;;;;;10.57;100.00;101409.03;106230;1254;68513;-82
2024/04/11 00:10:02;;;;;;;;;;;;;;;10.49;100.00;101406.75;106219;1256;72781;-85
2024/04/11 00:12:29;;;;;;;;;;;;;;;10.48;100.00;101407.00;106341;1253;61973;-86
2024/04/11 00:14:58;;;;;;;;;;;;;;;10.44;100.00;101410.50;106720;1254;61973;-85
2024/04/11 00:17:26;;;;;;;;;;;;;;;10.41;100.00;101411.30;106467;1256;75485;-82
2024/04/11 00:19:53;;;;;;;;;;;;;;;10.33;100.00;101414.41;106337;1255;68470;-85
2024/04/11 00:22:22;;;;;;;;;;;;;;;10.39;100.00;101416.62;106311;1257;71986;-85
2024/04/11 00:24:49;;;;;;;;;;;;;;;10.40;100.00;101417.18;106351;1254;62036;-82
2024/04/11 00:27:17;;;;;;;;;;;;;;;10.40;100.00;101420.14;106382;1258;61948;-82
2024/04/11 00:29:44;;;;;;;;;;;;;;;10.36;100.00;101418.02;106418;1256;74228;-82
2024/04/11 00:32:12;;;;;;;;;;;;;;;10.35;100.00;101417.72;106312;1260;67245;-86
2024/04/11 00:34:43;;;;;;;;;;;;;;;10.34;100.00;101421.09;106358;1253;72772;-82
2024/04/11 00:37:11;;;;;;;;;;;;;;;10.37;100.00;101417.58;106343;1257;62104;-85
2024/04/11 00:39:39;;;;;;;;;;;;;;;10.33;100.00;101420.33;106203;1256;62086;-86
2024/04/11 00:42:10;;;;;;;;;;;;;;;10.34;100.00;101417.87;106126;1258;73100;-82
2024/04/11 00:44:39;;;;;;;;;;;;;;;10.21;100.00;101425.52;106227;1254;68521;-85
2024/04/11 00:47:09;;;;;;;;;;;;;;;10.27;100.00;101422.09;106291;1254;73563;-86
2024/04/11 00:49:37;;;;;;;;;;;;;;;10.26;100.00;101424.19;106756;1254;62041;-82
2024/04/11 00:52:04;;;;;;;;;;;;;;;10.29;100.00;101426.29;106445;1260;60329;-86
2024/04/11 00:54:32;;;;;;;;;;;;;;;10.26;100.00;101427.77;106600;1256;75540;-85
2024/04/11 00:57:00;;;;;;;;;;;;;;;10.25;100.00;101427.63;106336;1254;68768;-82
2024/04/11 00:59:28;;;;;;;;;;;;;;;10.23;100.00;101428.95;106163;1255;72708;-86
2024/04/11 01:01:55;;;;;;;;;;;;;;;10.23;100.00;101429.68;106392;1256;62029;-86
2024/04/11 01:04:23;;;;;;;;;;;;;;;10.24;100.00;101429.20;106605;1253;61270;-80
2024/04/11 01:07:07;;;;;;;;;;;;;;;10.23;100.00;101433.89;106794;1254;74241;-87
2024/04/11 01:09:37;;;;;;;;;;;;;;;10.22;100.00;101437.27;106341;1253;67294;-86
2024/04/11 01:12:07;;;;;;;;;;;;;;;10.18;100.00;101436.92;106381;1259;74385;-86
2024/04/11 01:14:35;;;;;;;;;;;;;;;10.18;100.00;101437.69;106368;1254;62078;-86
2024/04/11 01:17:02;;;;;;;;;;;;;;;10.15;100.00;101435.73;106328;1259;61948;-86
2024/04/11 01:19:30;;;;;;;;;;;;;;;10.14;100.00;101438.40;106342;1259;75498;-82
2024/04/11 01:21:57;;;;;;;;;;;;;;;10.10;100.00;101432.23;106489;1253;68460;-86
2024/04/11 01:24:26;;;;;;;;;;;;;;;10.08;100.00;101433.77;106634;1254;72742;-83
2024/04/11 01:26:56;;;;;;;;;;;;;;;10.07;100.00;101436.83;106338;1259;62080;-86
2024/04/11 01:29:24;;;;;;;;;;;;;;;10.02;100.00;101434.30;106386;1259;62088;-82
2024/04/11 01:31:57;;;;;;;;;;;;;;;9.97;100.00;101434.01;106191;1256;75573;-85
2024/04/11 01:34:24;;;;;;;;;;;;;;;9.93;100.00;101432.70;106223;1258;69013;-86
2024/04/11 01:36:54;;;;;;;;;;;;;;;9.86;100.00;101431.78;106566;1254;72758;-83
2024/04/11 01:39:22;;;;;;;;;;;;;;;9.85;100.00;101435.48;106313;1259;62163;-82
2024/04/11 01:41:51;;;;;;;;;;;;;;;9.84;100.00;101436.45;106406;1254;62024;-82
2024/04/11 01:44:20;;;;;;;;;;;;;;;9.83;100.00;101434.13;106222;1254;76038;-82
2024/04/11 01:46:49;;;;;;;;;;;;;;;9.81;100.00;101434.77;106270;1254;68934;-82
2024/04/11 01:49:16;;;;;;;;;;;;;;;9.79;100.00;101434.79;106626;1256;92423;-88
2024/04/11 01:51:44;;;;;;;;;;;;;;;9.80;100.00;101439.56;106230;1256;62140;-86
2024/04/11 01:54:11;;;;;;;;;;;;;;;9.77;100.00;101437.60;105872;1256;61964;-85
2024/04/11 01:56:39;;;;;;;;;;;;;;;9.78;100.00;101443.94;106013;1256;75513;-85
2024/04/11 01:59:07;;;;;;;;;;;;;;;9.71;100.00;101445.54;107954;1260;68520;-88
2024/04/11 02:01:34;;;;;;;;;;;;;;;9.70;100.00;101446.65;106036;1257;71493;-88
2024/04/11 02:04:05;;;;;;;;;;;;;;;9.68;100.00;101446.20;106704;1262;61612;-87
2024/04/11 02:06:36;;;;;;;;;;;;;;;9.67;100.00;101450.27;106100;1261;62105;-87
2024/04/11 02:09:11;;;;;;;;;;;;;;;9.68;100.00;101453.73;105993;1256;77756;-88
2024/04/11 02:11:42;;;;;;;;;;;;;;;9.65;100.00;101450.52;105933;1256;68528;-86
2024/04/11 02:14:11;;;;;;;;;;;;;;;9.64;100.00;101452.90;105926;1260;71470;-88
2024/04/11 02:16:39;;;;;;;;;;;;;;;9.65;100.00;101449.20;106107;1257;62213;-87
2024/04/11 02:19:07;;;;;;;;;;;;;;;9.66;100.00;101445.83;106377;1262;62027;-87
2024/04/11 02:21:36;;;;;;;;;;;;;;;9.67;100.00;101449.52;105904;1256;74262;-87
2024/04/11 02:24:06;;;;;;;;;;;;;;;9.67;100.00;101444.65;106048;1256;68521;-86
2024/04/11 02:26:37;;;;;;;;;;;;;;;9.69;100.00;101450.29;106300;1262;73087;-87
2024/04/11 02:29:04;;;;;;;;;;;;;;;9.69;100.00;101451.55;106378;1257;62779;-87
2024/04/11 02:31:35;;;;;;;;;;;;;;;9.71;100.00;101448.20;106112;1262;62073;-87
2024/04/11 02:34:02;;;;;;;;;;;;;;;9.68;100.00;101457.83;106348;1262;78203;-87
2024/04/11 02:36:31;;;;;;;;;;;;;;;9.66;100.00;101461.23;106311;1259;67475;-86
2024/04/11 02:38:59;;;;;;;;;;;;;;;9.63;100.00;101461.89;105892;1257;74703;-87
2024/04/11 02:41:27;;;;;;;;;;;;;;;9.64;100.00;101466.58;106179;1260;62018;-88
2024/04/11 02:43:56;;;;;;;;;;;;;;;9.62;100.00;101466.68;105994;1257;62153;-86
2024/04/11 02:46:25;;;;;;;;;;;;;;;9.60;100.00;101465.66;106504;1256;75841;-87
2024/04/11 02:48:53;;;;;;;;;;;;;;;9.59;100.00;101462.42;106318;1257;70136;-88
2024/04/11 02:51:22;;;;;;;;;;;;;;;9.58;100.00;101466.56;106021;1262;73005;-86
2024/04/11 02:53:50;;;;;;;;;;;;;;;9.59;100.00;101466.30;105968;1256;62098;-86
2024/04/11 02:56:18;;;;;;;;;;;;;;;9.56;100.00;101467.33;106025;1262;62035;-88
2024/04/11 02:58:46;;;;;;;;;;;;;;;9.54;100.00;101469.33;105985;1256;75489;-88
2024/04/11 03:01:16;;;;;;;;;;;;;;;9.47;100.00;101465.94;106953;1261;68513;-88
2024/04/11 03:03:45;;;;;;;;;;;;;;;9.37;100.00;101471.23;105934;1262;72798;-88
2024/04/11 03:06:21;;;;;;;;;;;;;;;9.32;100.00;101471.09;106107;1259;62216;-87
2024/04/11 03:08:53;;;;;;;;;;;;;;;9.38;100.00;101472.55;106004;1256;61950;-88
2024/04/11 03:11:23;;;;;;;;;;;;;;;9.37;100.00;101470.68;106114;1256;75599;-88
2024/04/11 03:13:56;;;;;;;;;;;;;;;9.36;100.00;101469.95;106073;1262;68518;-88
2024/04/11 03:16:24;;;;;;;;;;;;;;;9.35;100.00;101471.30;106391;1256;72894;-87
2024/04/11 03:18:52;;;;;;;;;;;;;;;9.31;100.00;101470.69;105945;1257;63724;-87
2024/04/11 03:21:20;;;;;;;;;;;;;;;9.27;100.00;101472.96;106022;1256;62611;-87
2024/04/11 03:23:47;;;;;;;;;;;;;;;9.27;100.00;101473.02;106035;1257;74481;-87
2024/04/11 03:26:15;;;;;;;;;;;;;;;9.19;100.00;101479.41;106057;1257;68630;-89
2024/04/11 03:28:42;;;;;;;;;;;;;;;9.19;100.00;101476.90;106406;1256;72401;-87
2024/04/11 03:31:13;;;;;;;;;;;;;;;9.23;100.00;101478.27;106162;1257;62525;-88
2024/04/11 03:33:40;;;;;;;;;;;;;;;9.23;100.00;101484.39;106010;1257;62265;-88
2024/04/11 03:36:12;;;;;;;;;;;;;;;9.31;100.00;101483.55;106063;1257;76017;-88
2024/04/11 03:38:41;;;;;;;;;;;;;;;9.33;100.00;101483.15;105985;1256;68701;-86
2024/04/11 03:41:09;;;;;;;;;;;;;;;9.35;100.00;101489.30;106036;1260;72429;-86
2024/04/11 03:43:38;;;;;;;;;;;;;;;9.39;100.00;101489.09;105951;1257;62063;-88
2024/04/11 03:46:06;;;;;;;;;;;;;;;9.45;100.00;101490.67;106683;1263;62085;-88
2024/04/11 03:48:34;;;;;;;;;;;;;;;9.53;100.00;101491.04;106051;1256;75421;-87
2024/04/11 03:51:13;;;;;;;;;;;;;;;9.60;100.00;101487.48;106212;1256;69291;-86
2024/04/11 03:53:41;;;;;;;;;;;;;;;9.76;100.00;101493.53;106157;1260;72754;-88
2024/04/11 03:56:09;;;;;;;;;;;;;;;9.89;100.00;101496.04;106093;1260;62019;-86
2024/04/11 03:58:37;;;;;;;;;;;;;;;9.93;100.00;101501.12;107181;1257;61913;-87
2024/04/11 04:01:15;;;;;;;;;;;;;;;10.02;100.00;101495.02;106098;1262;75547;-89
2024/04/11 04:03:43;;;;;;;;;;;;;;;10.16;100.00;101500.48;106012;1262;68501;-86
2024/04/11 04:06:15;;;;;;;;;;;;;;;10.20;100.00;101501.09;105985;1262;71461;-86
2024/04/11 04:08:47;;;;;;;;;;;;;;;10.29;100.00;101500.52;106061;1257;62217;-86
2024/04/11 04:11:15;;;;;;;;;;;;;;;10.40;100.00;101500.73;106274;1257;62111;-88
2024/04/11 04:13:43;;;;;;;;;;;;;;;10.54;100.00;101502.12;106101;1257;73226;-86
2024/04/11 04:16:11;;;;;;;;;;;;;;;10.68;100.00;101500.34;106210;1256;68575;-88
2024/04/11 04:18:41;;;;;;;;;;;;;;;10.85;100.00;101501.90;105968;1262;73163;-85
2024/04/11 04:21:09;;;;;;;;;;;;;;;10.99;100.00;101500.59;105997;1256;62164;-86
2024/04/11 04:23:36;;;;;;;;;;;;;;;11.14;100.00;101503.55;106024;1256;62119;-87
2024/04/11 04:26:08;;;;;;;;;;;;;;;11.30;100.00;101502.02;106178;1257;75690;-87
2024/04/11 04:28:36;;;;;;;;;;;;;;;11.44;100.00;101503.95;106529;1256;68843;-86
2024/04/11 04:31:16;;;;;;;;;;;;;;;11.56;100.00;101503.50;106110;1262;73018;-86
2024/04/11 04:33:47;;;;;;;;;;;;;;;11.76;100.00;101507.52;105989;1257;62102;-89
2024/04/11 04:36:19;;;;;;;;;;;;;;;11.95;100.00;101504.89;106027;1258;60720;-89
2024/04/11 04:38:49;;;;;;;;;;;;;;;12.16;100.00;101503.94;106000;1262;75506;-86
2024/04/11 04:41:17;;;;;;;;;;;;;;;12.37;100.00;101507.36;106660;1257;67278;-86
2024/04/11 04:43:53;;;;;;;;;;;;;;;12.59;100.00;101514.27;106049;1262;73231;-86
2024/04/11 04:46:24;;;;;;;;;;;;;;;12.86;100.00;101516.19;105984;1262;62028;-86
2024/04/11 04:48:52;;;;;;;;;;;;;;;13.08;100.00;101515.93;106215;1260;62060;-86
2024/04/11 04:51:20;;;;;;;;;;;;;;;13.28;100.00;101521.65;105991;1256;75427;-89
2024/04/11 04:53:52;;;;;;;;;;;;;;;13.48;100.00;101525.66;106287;1256;69398;-86
2024/04/11 04:56:23;;;;;;;;;;;;;;;13.69;100.00;101528.20;106610;1259;72751;-83
2024/04/11 04:58:51;;;;;;;;;;;;;;;13.91;100.00;101518.85;106732;1257;61984;-86
2024/04/11 05:01:20;;;;;;;;;;;;;;;14.15;100.00;101521.20;108855;1256;60672;-86
2024/04/11 05:03:50;;;;;;;;;;;;;;;14.41;100.00;101523.01;108333;1261;76046;-88
2024/04/11 05:06:18;;;;;;;;;;;;;;;14.69;100.00;101518.95;106005;1261;67859;-89
2024/04/11 05:08:46;;;;;;;;;;;;;;;14.94;100.00;101517.66;106163;1262;72794;-83
2024/04/11 05:11:14;;;;;;;;;;;;;;;15.20;100.00;101519.74;106233;1262;62123;-83
2024/04/11 05:13:42;;;;;;;;;;;;;;;15.50;100.00;101519.77;106394;1262;61916;-87
2024/04/11 05:16:18;;;;;;;;;;;;;;;15.86;100.00;101520.87;106556;1261;75519;-83
2024/04/11 05:18:47;;;;;;;;;;;;;;;16.21;100.00;101520.11;106307;1256;69063;-87
2024/04/11 05:21:19;;;;;;;;;;;;;;;16.50;100.00;101516.05;108779;1259;71476;-84
2024/04/11 05:23:47;;;;;;;;;;;;;;;16.78;100.00;101521.69;106913;1256;63615;-88
2024/04/11 05:26:14;;;;;;;;;;;;;;;17.08;100.00;101519.33;106394;1262;61927;-83
2024/04/11 05:28:46;;;;;;;;;;;;;;;17.39;100.00;101522.47;106118;1256;75483;-87
2024/04/11 05:31:16;;;;;;;;;;;;;;;17.69;100.00;101520.61;105985;1262;67628;-87
2024/04/11 05:33:45;;;;;;;;;;;;;;;17.95;100.00;101521.33;105971;1260;74871;-88
2024/04/11 05:36:17;;;;;;;;;;;;;;;18.19;100.00;101518.17;106069;1256;62068;-87
2024/04/11 05:38:46;;;;;;;;;;;;;;;18.40;100.00;101517.73;106047;1262;61957;-84
2024/04/11 05:41:14;;;;;;;;;;;;;;;18.59;100.00;101514.99;106029;1257;74550;-85
2024/04/11 05:43:49;;;;;;;;;;;;;;;18.80;100.00;101517.40;105920;1257;67721;-84
2024/04/11 05:46:19;;;;;;;;;;;;;;;19.03;100.00;101516.48;106082;1258;72954;-88
2024/04/11 05:48:47;;;;;;;;;;;;;;;19.19;99.71;101516.38;106496;1257;62450;-85
2024/04/11 05:51:19;;;;;;;;;;;;;;;19.35;92.40;101519.23;107093;1262;60900;-89
2024/04/11 05:53:47;;;;;;;;;;;;;;;19.59;90.14;101519.49;106423;1261;74248;-86
2024/04/11 05:56:14;;;;;;;;;;;;;;;19.85;87.34;101521.95;107054;1259;68647;-89
2024/04/11 05:58:45;;;;;;;;;;;;;;;20.01;82.39;101522.23;106969;1256;74864;-85
2024/04/11 06:01:16;;;;;;;;;;;;;;;20.19;79.15;101526.00;106976;1257;62175;-89
2024/04/11 06:03:50;;;;;;;;;;;;;;;20.41;74.07;101526.23;106280;1262;62032;-85
2024/04/11 06:06:21;;;;;;;;;;;;;;;20.62;70.31;101525.39;106097;1263;77629;-89
2024/04/11 06:08:50;;;;;;;;;;;;;;;20.82;67.00;101525.20;106530;1257;70909;-89
2024/04/11 06:11:19;;;;;;;;;;;;;;;21.02;64.13;101527.11;106568;1263;72474;-87
2024/04/11 06:13:47;;;;;;;;;;;;;;;21.21;61.28;101524.27;106491;1260;61997;-90
2024/04/11 06:16:15;;;;;;;;;;;;;;;21.41;59.94;101523.77;106520;1256;62070;-90
2024/04/11 06:18:43;;;;;;;;;;;;;;;21.63;59.23;101524.55;106863;1257;75526;-90
2024/04/11 06:21:12;;;;;;;;;;;;;;;21.94;59.11;101528.38;106216;1258;69543;-90
2024/04/11 06:23:40;;;;;;;;;;;;;;;22.19;56.04;101525.11;106285;1261;74515;-90
2024/04/11 06:26:12;;;;;;;;;;;;;;;22.39;54.92;101526.90;106495;1262;62085;-89
2024/04/11 06:28:40;;;;;;;;;;;;;;;22.60;53.83;101530.96;106653;1257;61952;-88
2024/04/11 06:31:09;;;;;;;;;;;;;;;22.77;51.80;101528.26;106650;1257;76457;-87
2024/04/11 06:33:40;;;;;;;;;;;;;;;22.96;50.39;101526.67;106577;1262;69789;-90
2024/04/11 06:36:12;;;;;;;;;;;;;;;23.18;49.28;101531.40;106458;1261;73647;-89
2024/04/11 06:38:40;;;;;;;;;;;;;;;23.35;47.67;101527.67;106677;1257;62367;-89
2024/04/11 06:41:08;;;;;;;;;;;;;;;23.54;48.04;101523.38;106616;1262;62191;-90
2024/04/11 06:43:41;;;;;;;;;;;;;;;23.73;46.82;101527.35;106447;1262;77570;-89
2024/04/11 06:46:10;;;;;;;;;;;;;;;23.89;45.40;101527.05;107053;1262;67641;-90
2024/04/11 06:48:43;;;;;;;;;;;;;;;24.10;44.77;101527.08;106635;1257;71519;-89
2024/04/11 06:51:14;;;;;;;;;;;;;;;24.35;43.88;101524.51;106501;1258;62158;-89
2024/04/11 06:53:43;;;;;;;;;;;;;;;24.57;43.31;101523.66;106491;1258;62268;-89
2024/04/11 06:56:11;;;;;;;;;;;;;;;24.73;44.36;101524.55;106415;1257;74652;-88
2024/04/11 06:58:38;;;;;;;;;;;;;;;24.89;42.94;101528.04;107107;1258;69789;-88
2024/04/11 07:01:09;;;;;;;;;;;;;;;25.07;41.72;101522.19;106576;1260;74013;-88
2024/04/11 07:03:40;;;;;;;;;;;;;;;25.24;41.46;101521.88;106492;1256;62650;-89
2024/04/11 07:06:09;;;;;;;;;;;;;;;25.36;41.16;101521.17;106672;1263;62097;-88
2024/04/11 07:08:38;;;;;;;;;;;;;;;25.39;41.06;101522.53;106552;1259;77770;-88
2024/04/11 07:13:56;;;;;;;;;;;;;;;25.76;41.11;101520.66;107021;1262;74952;-89
2024/04/11 07:16:29;;;;;;;;;;;;;;;25.89;39.76;101521.92;106597;1260;62261;-89
2024/04/11 07:18:57;;;;;;;;;;;;;;;26.00;38.87;101527.90;108030;1258;62078;-89
2024/04/11 07:21:26;;;;;;;;;;;;;;;26.16;37.75;101526.81;106839;1262;76499;-88
2024/04/11 07:23:54;;;;;;;;;;;;;;;26.39;37.94;101524.34;106610;1257;60971;-89
2024/04/11 07:26:22;;;;;;;;;;;;;;;26.57;37.62;101525.87;106866;1261;63977;-89
2024/04/11 07:28:50;;;;;;;;;;;;;;;26.69;36.45;101525.91;107051;1257;62105;-87
2024/04/11 07:31:19;;;;;;;;;;;;;;;26.81;35.63;101521.24;106874;1257;60088;-90
2024/04/11 07:33:48;;;;;;;;;;;;;;;26.97;35.26;101524.02;106706;1263;76615;-88
2024/04/11 07:36:17;;;;;;;;;;;;;;;27.06;34.82;101524.45;106882;1260;61964;-88
2024/04/11 07:38:44;;;;;;;;;;;;;;;27.17;35.20;101524.63;106709;1257;73630;-89
2024/04/11 07:41:20;;;;;;;;;;;;;;;27.25;34.72;101526.60;106975;1262;61965;-90
2024/04/11 07:44:05;;;;;;;;;;;;;;;27.44;33.86;101521.94;107106;1262;62171;-89
2024/04/11 07:46:37;;;;;;;;;;;;;;;27.63;33.09;101522.96;107390;1256;65264;-88
2024/04/11 07:49:17;;;;;;;;;;;;;;;27.69;32.63;101523.00;106921;1257;61824;-89
2024/04/11 07:51:45;;;;;;;;;;;;;;;27.81;32.22;101516.76;106661;1268;66004;-89
2024/04/11 07:54:15;;;;;;;;;;;;;;;27.95;32.94;101513.27;106476;1257;62276;-88
2024/04/11 07:57:00;;;;;;;;;;;;;;;27.99;33.09;101512.45;106652;1261;62073;-89
2024/04/11 07:59:30;;;;;;;;;;;;;;;28.03;32.54;101510.85;106732;1260;67109;-88
2024/04/11 08:02:00;;;;;;;;;;;;;;;28.06;32.43;101507.60;107296;1259;67065;-87
2024/04/11 08:04:28;;;;;;;;;;;;;;;28.08;32.11;101509.48;106355;1258;64921;-89
2024/04/11 08:06:56;;;;;;;;;;;;;;;28.22;31.30;101508.86;106198;1258;62146;-89
2024/04/11 08:09:24;;;;;;;;;;;;;;;28.49;30.93;101507.16;106112;1260;62316;-89
2024/04/11 08:11:51;;;;;;;;;;;;;;;28.69;30.55;101506.84;106076;1260;76400;-87
2024/04/11 08:14:19;;;;;;;;;;;;;;;28.78;31.68;101505.52;105997;1257;70943;-89
2024/04/11 08:16:47;;;;;;;;;;;;;;;28.83;29.96;101506.00;106114;1262;73567;-89
2024/04/11 08:19:17;;;;;;;;;;;;;;;28.79;30.47;101510.91;106641;1263;62033;-88
2024/04/11 08:21:46;;;;;;;;;;;;;;;28.81;30.14;101513.84;106151;1257;62236;-89
2024/04/11 08:24:13;;;;;;;;;;;;;;;28.79;29.36;101510.91;105946;1258;76543;-89
2024/04/11 08:26:41;;;;;;;;;;;;;;;28.83;29.52;101507.45;106213;1261;69380;-88
2024/04/11 08:29:09;;;;;;;;;;;;;;;28.90;29.07;101506.59;106262;1258;64740;-89
2024/04/11 08:31:37;;;;;;;;;;;;;;;29.01;28.60;101508.45;106682;1260;61987;-88
2024/04/11 08:34:05;;;;;;;;;;;;;;;29.20;28.73;101509.52;106003;1258;62147;-89
2024/04/11 08:36:33;;;;;;;;;;;;;;;29.32;29.79;101509.84;106301;1257;68615;-88
2024/04/11 08:39:04;;;;;;;;;;;;;;;29.33;28.69;101507.60;106299;1257;70412;-90
2024/04/11 08:41:32;;;;;;;;;;;;;;;29.28;27.88;101510.10;106076;1258;63816;-89
2024/04/11 08:43:59;;;;;;;;;;;;;;;29.35;27.01;101511.09;105997;1258;61948;-89
2024/04/11 08:46:27;;;;;;;;;;;;;;;29.41;26.00;101504.15;107482;1256;61986;-88
2024/04/11 08:48:55;;;;;;;;;;;;;;;29.36;25.89;101513.34;106330;1258;68650;-89
2024/04/11 08:51:23;;;;;;;;;;;;;;;29.35;25.58;101517.67;106243;1258;71103;-88
2024/04/11 08:53:54;;;;;;;;;;;;;;;29.37;26.39;101517.54;106074;1262;73683;-89
2024/04/11 08:56:31;;;;;;;;;;;;;;;29.41;27.17;101516.14;106049;1262;62142;-90
2024/04/11 08:59:00;;;;;;;;;;;;;;;29.32;28.11;101514.98;106101;1260;62390;-90
2024/04/11 09:01:29;;;;;;;;;;;;;;;29.21;27.01;101513.55;106691;1257;77755;-89
2024/04/11 09:03:57;;;;;;;;;;;;;;;29.15;27.04;101509.30;107064;1261;69865;-89
2024/04/11 09:06:26;;;;;;;;;;;;;;;29.14;26.41;101509.92;106006;1258;64146;-88
2024/04/11 09:08:55;;;;;;;;;;;;;;;29.13;26.11;101508.39;106085;1257;62226;-88
2024/04/11 09:11:23;;;;;;;;;;;;;;;29.17;25.74;101511.16;106061;1257;61962;-87
2024/04/11 09:14:00;;;;;;;;;;;;;;;29.19;26.24;101509.98;106600;1258;68997;-88
2024/04/11 09:16:28;;;;;;;;;;;;;;;29.18;26.09;101505.06;106508;1260;62169;-89
2024/04/11 09:19:04;;;;;;;;;;;;;;;29.15;26.58;101504.95;106106;1257;62937;-89
2024/04/11 09:21:33;;;;;;;;;;;;;;;29.25;27.10;101508.46;105987;1256;61993;-89
2024/04/11 09:24:01;;;;;;;;;;;;;;;29.31;27.21;101502.10;106258;1260;62032;-89
2024/04/11 09:26:29;;;;;;;;;;;;;;;29.36;27.37;101495.41;105967;1257;69312;-89
2024/04/11 09:28:57;;;;;;;;;;;;;;;29.35;26.31;101500.70;106296;1262;62022;-85
2024/04/11 09:31:24;;;;;;;;;;;;;;;29.24;26.80;101504.59;105929;1258;74865;-85
2024/04/11 09:33:55;;;;;;;;;;;;;;;29.19;26.95;101506.61;106048;1262;62101;-85
2024/04/11 09:36:28;;;;;;;;;;;;;;;29.16;26.57;101506.17;106097;1257;61993;-85
2024/04/11 09:39:05;;;;;;;;;;;;;;;29.10;26.06;101502.08;106048;1257;77587;-85
2024/04/11 09:41:35;;;;;;;;;;;;;;;29.04;26.21;101503.89;106437;1257;70379;-85
2024/04/11 09:44:06;;;;;;;;;;;;;;;29.06;26.83;101508.38;106144;1257;74946;-84
2024/04/11 09:46:41;;;;;;;;;;;;;;;29.03;26.31;101507.26;105921;1257;62060;-84
2024/04/11 09:49:12;;;;;;;;;;;;;;;28.96;25.87;101503.21;105924;1257;62091;-85
2024/04/11 09:51:41;;;;;;;;;;;;;;;28.94;25.50;101506.95;105957;1257;65729;-85
2024/04/11 09:54:13;;;;;;;;;;;;;;;28.89;25.29;101503.91;106066;1262;69557;-84
2024/04/11 09:56:44;;;;;;;;;;;;;;;28.88;26.34;101501.73;106451;1263;62438;-84
2024/04/11 09:59:12;;;;;;;;;;;;;;;28.98;27.20;101505.16;106139;1260;62197;-83
2024/04/11 10:01:40;;;;;;;;;;;;;;;29.11;28.80;101503.13;106119;1257;62152;-85
2024/04/11 10:04:35;;;;;;;;;;;;;;;29.31;28.45;101493.41;106066;1261;77620;-84
2024/04/11 10:07:08;;;;;;;;;;;;;;;29.58;28.16;101497.38;106154;1257;67078;-84
2024/04/11 10:09:35;;;;;;;;;;;;;;;29.80;25.77;101496.02;105950;1257;64112;-84
2024/04/11 10:12:09;;;;;;;;;;;;;;;29.90;27.35;101492.98;106593;1257;62283;-84
2024/04/11 10:14:39;;;;;;;;;;;;;;;30.00;27.13;101494.60;106156;1257;62198;-84
2024/04/11 10:17:07;;;;;;;;;;;;;;;30.15;26.54;101494.91;106149;1256;68682;-84
2024/04/11 10:19:38;;;;;;;;;;;;;;;30.28;26.00;101498.10;106043;1257;70966;-83
2024/04/11 10:22:06;;;;;;;;;;;;;;;30.32;26.13;101496.61;106217;1257;73681;-84
2024/04/11 10:24:37;;;;;;;;;;;;;;;30.28;25.44;101495.86;106242;1257;62523;-86
2024/04/11 10:27:11;;;;;;;;;;;;;;;30.28;25.65;101493.38;105967;1258;62137;-86
2024/04/11 10:29:43;;;;;;;;;;;;;;;30.17;25.20;101491.55;105953;1257;65575;-84
2024/04/11 10:32:35;;;;;;;;;;;;;;;30.09;25.76;101495.33;106076;1260;62095;-85
2024/04/11 10:35:04;;;;;;;;;;;;;;;30.12;25.46;101498.34;106040;1258;73638;-85
2024/04/11 10:37:35;;;;;;;;;;;;;;;30.07;25.77;101498.94;106124;1257;62111;-84
2024/04/11 10:40:02;;;;;;;;;;;;;;;30.10;25.67;101499.13;104682;1256;1740410;-85
2024/04/11 10:42:36;;;;;;;;;;;;;;;30.12;26.23;101496.49;105977;1262;68699;-85
2024/04/11 10:45:17;;;;;;;;;;;;;;;30.02;27.14;101498.17;106039;1257;71030;-84
2024/04/11 10:47:46;;;;;;;;;;;;;;;30.01;26.14;101497.27;106382;1256;64955;-84
2024/04/11 10:50:15;;;;;;;;;;;;;;;30.03;26.06;101493.99;105942;1261;62118;-85
2024/04/11 10:52:46;;;;;;;;;;;;;;;30.10;25.92;101497.59;106025;1256;62008;-85
2024/04/11 10:55:28;;;;;;;;;;;;;;;30.06;25.81;101497.98;106161;1256;68612;-86
2024/04/11 10:58:21;;;;;;;;;;;;;;;30.06;25.96;101494.02;106134;1258;62473;-86
2024/04/11 11:06:15;;;;;;;;;;;;;;;29.97;26.77;101494.17;106065;1260;62021;-89
2024/04/11 11:08:45;;;;;;;;;;;;;;;29.90;27.03;101494.91;106007;1257;69017;-89
2024/04/11 11:11:14;;;;;;;;;;;;;;;29.85;27.58;101491.80;106118;1260;69833;-90
2024/04/11 11:13:42;;;;;;;;;;;;;;;29.62;27.49;101491.54;106566;1258;73618;-91
2024/04/11 11:16:13;;;;;;;;;;;;;;;29.43;27.54;101486.73;106060;1258;62079;-90
2024/04/11 11:18:43;;;;;;;;;;;;;;;29.25;27.70;101486.91;106106;1262;62027;-85
2024/04/11 11:21:22;;;;;;;;;;;;;;;29.09;27.71;101487.09;106166;1260;77783;-85
2024/04/11 11:23:59;;;;;;;;;;;;;;;29.02;27.57;101489.48;105937;1256;62072;-83
2024/04/11 11:26:35;;;;;;;;;;;;;;;28.98;28.46;101487.98;105860;1257;66387;-85
2024/04/11 11:29:19;;;;;;;;;;;;;;;28.92;29.24;101487.80;106407;1261;61136;-83
2024/04/11 11:31:50;;;;;;;;;;;;;;;28.94;29.54;101483.82;105918;1257;62173;-84
2024/04/11 11:34:27;;;;;;;;;;;;;;;29.04;29.10;101481.01;105967;1257;77533;-84
2024/04/11 11:36:59;;;;;;;;;;;;;;;29.19;28.94;101478.23;106297;1261;62046;-84
2024/04/11 11:39:27;;;;;;;;;;;;;;;29.33;28.50;101469.15;106057;1256;73817;-84
2024/04/11 11:42:08;;;;;;;;;;;;;;;29.53;27.91;101469.46;106326;1258;62739;-84
2024/04/11 11:47:33;;;;;;;;;;;;;;;30.16;26.85;101459.81;105902;1257;73988;-85
2024/04/11 11:50:08;;;;;;;;;;;;;;;30.45;26.69;101463.04;105966;1256;62226;-86
2024/04/11 11:52:35;;;;;;;;;;;;;;;30.73;27.06;101455.56;106007;1258;74952;-84
2024/04/11 11:55:06;;;;;;;;;;;;;;;30.94;26.35;101452.08;105968;1259;62035;-85
2024/04/11 11:57:40;;;;;;;;;;;;;;;31.17;26.21;101452.27;106130;1261;62650;-85
2024/04/11 12:00:24;;;;;;;;;;;;;;;31.14;26.20;101451.94;105908;1260;68931;-85
2024/04/11 12:02:52;;;;;;;;;;;;;;;31.05;26.73;101446.98;106039;1257;71114;-86
2024/04/11 12:05:33;;;;;;;;;;;;;;;31.26;26.49;101446.27;106091;1261;74930;-87
2024/04/11 12:08:06;;;;;;;;;;;;;;;31.58;25.50;101441.53;106001;1257;62379;-87
2024/04/11 12:16:03;;;;;;;;;;;;;;;32.04;25.16;101438.31;106036;1257;70943;-86
2024/04/11 12:18:31;;;;;;;;;;;;;;;32.08;25.18;101441.54;105988;1256;64670;-85
2024/04/11 12:20:59;;;;;;;;;;;;;;;32.07;25.96;101438.48;106037;1257;62148;-86
2024/04/11 12:23:29;;;;;;;;;;;;;;;32.14;26.64;101435.32;106040;1262;61989;-86
2024/04/11 12:25:57;;;;;;;;;;;;;;;32.20;25.96;101434.11;105956;1258;76371;-86
2024/04/11 12:28:25;;;;;;;;;;;;;;;32.15;26.18;101429.90;106179;1256;71066;-86
2024/04/11 12:31:00;;;;;;;;;;;;;;;31.81;26.60;101436.33;105952;1257;74974;-86
2024/04/11 12:33:43;;;;;;;;;;;;;;;31.47;26.54;101430.78;105968;1257;62431;-85
2024/04/11 12:39:15;;;;;;;;;;;;;;;31.13;27.23;101435.73;106018;1257;68692;-86
2024/04/11 12:41:43;;;;;;;;;;;;;;;30.97;27.90;101433.96;105841;1263;62021;-85
2024/04/11 12:44:12;;;;;;;;;;;;;;;30.91;28.31;101434.26;105989;1259;73551;-86
2024/04/11 12:46:52;;;;;;;;;;;;;;;30.76;28.54;101430.36;106073;1257;62163;-86
2024/04/11 12:49:25;;;;;;;;;;;;;;;30.46;28.66;101431.64;106114;1262;62106;-85
2024/04/11 12:51:57;;;;;;;;;;;;;;;30.35;28.61;101429.63;106053;1256;67795;-86
2024/04/11 12:54:28;;;;;;;;;;;;;;;30.20;28.50;101425.63;106015;1257;68824;-85
2024/04/11 12:57:05;;;;;;;;;;;;;;;30.01;28.76;101418.05;106189;1261;67901;-86